Hilo, Hilo International Airport (PHTO)

NameHilo International Airport
CityHilo
CountryUnited States
ICAOPHTO
IATAITO
Altitude12 m
CoordinatesGoogle Map
Live Air TrafficLiveATC.net
METARPHTO 251653Z 26005KT 10SM FEW033 FEW048 SCT070 22/17 A3009
2020-04-25 16:53:00 Wind: West-Southwest (260°) 2.57 m/s - Visibility: 16093.4 m - Temperature: 22 °C - Dew point: 17 °C - Humidity: 73.4% - Pressure: 1018.96 hPa

Sorry, no flights used the airport in this database.